createdAt,value
2018-07-13T00:00:41.570Z,18.8
2018-07-13T00:01:41.408Z,18.7
2018-07-13T00:02:40.633Z,18.7
2018-07-13T00:03:39.730Z,18.7
2018-07-13T00:04:39.661Z,18.7
2018-07-13T00:05:38.484Z,18.7
2018-07-13T00:06:37.907Z,18.6
2018-07-13T00:07:37.130Z,18.6
2018-07-13T00:08:36.966Z,18.6
2018-07-13T00:09:36.190Z,18.6
2018-07-13T00:10:35.403Z,18.6
2018-07-13T00:11:34.619Z,18.6
2018-07-13T00:12:34.444Z,18.5
2018-07-13T00:13:33.895Z,18.5
2018-07-13T00:14:32.819Z,18.5
2018-07-13T00:15:32.240Z,18.5
2018-07-13T00:16:31.673Z,18.5
2018-07-13T00:17:31.106Z,18.5
2018-07-13T00:18:30.211Z,18.5
2018-07-13T00:19:29.639Z,18.4
2018-07-13T00:20:28.860Z,18.5
2018-07-13T00:21:28.076Z,18.5
2018-07-13T00:22:27.918Z,18.5
2018-07-13T00:23:26.922Z,18.5
2018-07-13T00:24:26.149Z,18.4
2018-07-13T00:25:25.866Z,18.4
2018-07-13T00:26:24.874Z,18.4
2018-07-13T00:27:24.808Z,18.4
2018-07-13T00:28:24.127Z,18.4
2018-07-13T00:29:23.561Z,18.4
2018-07-13T00:29:53.485Z,18.4
2018-07-13T00:31:21.894Z,18.4
2018-07-13T00:32:21.318Z,18.4
2018-07-13T00:33:20.757Z,18.4
2018-07-13T00:34:19.972Z,18.4
2018-07-13T00:35:19.295Z,18.4
2018-07-13T00:36:18.618Z,18.3
2018-07-13T00:37:17.933Z,18.3
2018-07-13T00:38:17.262Z,18.3
2018-07-13T00:39:16.888Z,18.3
2018-07-13T00:39:47.531Z,18.3
2018-07-13T00:40:17.784Z,18.3
2018-07-13T00:40:48.420Z,18.3
2018-07-13T00:41:19.053Z,18.3
2018-07-13T00:41:49.088Z,18.3
2018-07-13T00:42:19.509Z,18.3
2018-07-13T00:42:50.144Z,18.3
2018-07-13T00:44:13.743Z,18.2
2018-07-13T00:45:12.965Z,18.2
2018-07-13T00:46:12.180Z,18.2
2018-07-13T00:47:11.922Z,18.2
2018-07-13T00:48:11.151Z,18.1
2018-07-13T00:49:10.608Z,18.1
2018-07-13T00:50:09.937Z,18.1
2018-07-13T00:51:09.150Z,18.1
2018-07-13T00:52:08.470Z,18.1
2018-07-13T00:53:07.471Z,18
2018-07-13T00:54:07.305Z,18
2018-07-13T00:55:06.624Z,18
2018-07-13T00:56:05.849Z,18
2018-07-13T00:57:05.069Z,18
2018-07-13T00:58:04.681Z,17.9
2018-07-13T00:59:04.012Z,17.9
2018-07-13T01:00:03.130Z,18
2018-07-13T01:01:02.458Z,17.9
2018-07-13T01:02:01.892Z,17.9
2018-07-13T01:03:01.214Z,17.9
2018-07-13T01:04:00.542Z,17.9
2018-07-13T01:04:59.977Z,17.9
2018-07-13T01:05:59.304Z,17.9
2018-07-13T01:06:58.649Z,17.9
2018-07-13T01:07:57.865Z,17.9
2018-07-13T01:08:57.581Z,17.9
2018-07-13T01:09:56.916Z,17.9
2018-07-13T01:10:56.234Z,17.9
2018-07-13T01:11:26.871Z,17.9
2018-07-13T01:12:55.001Z,17.9
2018-07-13T01:13:54.232Z,17.9
2018-07-13T01:14:53.553Z,17.9
2018-07-13T01:15:52.886Z,17.8
2018-07-13T01:16:52.316Z,17.9
2018-07-13T01:17:51.635Z,17.9
2018-07-13T01:18:51.073Z,17.9
2018-07-13T01:19:50.508Z,17.9
2018-07-13T01:20:49.716Z,17.9
2018-07-13T01:21:49.186Z,17.8
2018-07-13T01:22:19.313Z,17.8
2018-07-13T01:22:49.952Z,17.8
2018-07-13T01:23:20.367Z,17.8
2018-07-13T01:23:50.886Z,17.8
2018-07-13T01:24:21.624Z,17.8
2018-07-13T01:24:51.861Z,17.8
2018-07-13T01:25:22.012Z,17.8
2018-07-13T01:26:45.385Z,17.8
2018-07-13T01:27:44.822Z,17.8
2018-07-13T01:28:43.942Z,17.8
2018-07-13T01:29:43.659Z,17.8
2018-07-13T01:30:42.668Z,17.8
2018-07-13T01:31:42.489Z,17.8
2018-07-13T01:32:41.702Z,17.8
2018-07-13T01:33:12.341Z,17.8
2018-07-13T01:33:42.878Z,17.8
2018-07-13T01:34:13.407Z,17.8
2018-07-13T01:35:39.692Z,17.9
2018-07-13T01:36:38.933Z,17.9
2018-07-13T01:37:38.251Z,17.9
2018-07-13T01:38:37.465Z,17.9
2018-07-13T01:39:36.803Z,17.9
2018-07-13T01:40:36.126Z,17.9
2018-07-13T01:41:35.954Z,17.8
2018-07-13T01:42:34.952Z,17.8
2018-07-13T01:43:34.388Z,17.8
2018-07-13T01:44:33.596Z,17.8
2018-07-13T01:45:32.817Z,17.8
2018-07-13T01:46:32.541Z,17.8
2018-07-13T01:47:31.869Z,17.7
2018-07-13T01:48:31.188Z,17.7
2018-07-13T01:49:30.404Z,17.7
2018-07-13T01:50:29.722Z,17.7
2018-07-13T01:51:29.037Z,17.7
2018-07-13T01:52:28.352Z,17.7
2018-07-13T01:53:27.463Z,17.6
2018-07-13T01:54:26.964Z,17.7
2018-07-13T01:55:26.284Z,17.6
2018-07-13T01:56:25.608Z,17.6
2018-07-13T01:57:25.326Z,17.6
2018-07-13T01:58:24.553Z,17.6
2018-07-13T01:59:23.766Z,17.6
2018-07-13T02:00:22.988Z,17.6
2018-07-13T02:01:22.097Z,17.6
2018-07-13T02:02:21.932Z,17.6
2018-07-13T02:03:21.223Z,17.6
2018-07-13T02:04:20.436Z,17.6
2018-07-13T02:05:19.858Z,17.6
2018-07-13T02:05:50.002Z,17.6
2018-07-13T02:06:20.535Z,17.6
2018-07-13T02:07:18.246Z,17.6
2018-07-13T02:08:18.074Z,17.5
2018-07-13T02:09:17.184Z,17.5
2018-07-13T02:10:16.449Z,17.5
2018-07-13T02:11:15.771Z,17.5
2018-07-13T02:12:15.100Z,17.5
2018-07-13T02:13:14.522Z,17.5
2018-07-13T02:14:13.641Z,17.5
2018-07-13T02:16:12.149Z,17.5
2018-07-13T02:17:11.970Z,17.5
2018-07-13T02:18:11.410Z,17.5
2018-07-13T02:19:10.837Z,17.5
2018-07-13T02:20:10.286Z,17.5
2018-07-13T02:20:40.214Z,17.5
2018-07-13T02:21:10.532Z,17.5
2018-07-13T02:21:41.172Z,17.5
2018-07-13T02:23:07.978Z,17.4
2018-07-13T02:24:07.190Z,17.4
2018-07-13T02:25:06.516Z,17.4
2018-07-13T02:26:05.745Z,17.4
2018-07-13T02:27:04.975Z,17.4
2018-07-13T02:28:04.911Z,17.4
2018-07-13T02:29:03.518Z,17.4
2018-07-13T02:30:03.295Z,17.4
2018-07-13T02:31:02.418Z,17.3
2018-07-13T02:32:02.046Z,17.3
2018-07-13T02:33:01.289Z,17.3
2018-07-13T02:34:01.519Z,17.3
2018-07-13T02:35:00.082Z,17.3
2018-07-13T02:35:59.427Z,17.3
2018-07-13T02:36:58.782Z,17.3
2018-07-13T02:37:58.231Z,17.2
2018-07-13T02:39:56.951Z,17.2
2018-07-13T02:40:55.902Z,17.2
2018-07-13T02:41:55.364Z,17.2
2018-07-13T02:42:54.257Z,17.1
2018-07-13T02:44:53.266Z,17.1
2018-07-13T02:45:52.486Z,17.1
2018-07-13T02:46:51.623Z,17
2018-07-13T02:47:51.359Z,17
2018-07-13T02:48:50.694Z,17
2018-07-13T02:49:50.136Z,17
2018-07-13T02:50:49.357Z,17
2018-07-13T02:51:48.577Z,17
2018-07-13T02:52:47.942Z,17
2018-07-13T02:53:47.182Z,17
2018-07-13T02:54:46.615Z,16.9
2018-07-13T02:55:46.041Z,16.9
2018-07-13T02:56:45.479Z,16.9
2018-07-13T02:57:49.470Z,16.9
2018-07-13T02:58:43.875Z,16.9
2018-07-13T02:59:43.213Z,16.9
2018-07-13T03:00:42.651Z,16.9
2018-07-13T03:01:12.671Z,16.9
2018-07-13T03:01:43.334Z,16.8
2018-07-13T03:02:13.980Z,16.8
2018-07-13T03:02:44.728Z,16.8
2018-07-13T03:03:14.861Z,16.8
2018-07-13T03:03:45.394Z,16.8
2018-07-13T03:04:16.034Z,16.8
2018-07-13T03:05:38.919Z,16.8
2018-07-13T03:06:38.746Z,16.7
2018-07-13T03:07:38.080Z,16.7
2018-07-13T03:08:36.799Z,16.7
2018-07-13T03:09:36.739Z,16.7
2018-07-13T03:10:35.567Z,16.7
2018-07-13T03:11:35.189Z,16.7
2018-07-13T03:12:05.833Z,16.7
2018-07-13T03:12:36.536Z,16.7
2018-07-13T03:13:07.082Z,16.7
2018-07-13T03:13:37.604Z,16.7
2018-07-13T03:14:08.150Z,16.7
2018-07-13T03:14:38.574Z,16.7
2018-07-13T03:15:09.222Z,16.7
2018-07-13T03:16:31.696Z,16.6
2018-07-13T03:17:31.032Z,16.6
2018-07-13T03:18:30.265Z,16.6
2018-07-13T03:19:29.607Z,16.6
2018-07-13T03:20:29.039Z,16.5
2018-07-13T03:21:28.371Z,16.5
2018-07-13T03:22:27.823Z,16.5
2018-07-13T03:23:27.157Z,16.5
2018-07-13T03:24:26.261Z,16.4
2018-07-13T03:25:25.475Z,16.4
2018-07-13T03:26:24.689Z,16.4
2018-07-13T03:27:24.113Z,16.4
2018-07-13T03:28:23.437Z,16.4
2018-07-13T03:29:22.763Z,16.4
2018-07-13T03:30:22.078Z,16.3
2018-07-13T03:31:21.294Z,16.3
2018-07-13T03:32:20.719Z,16.3
2018-07-13T03:33:20.158Z,16.3
2018-07-13T03:34:19.261Z,16.3
2018-07-13T03:35:18.477Z,16.3
2018-07-13T03:36:18.332Z,16.3
2018-07-13T03:37:17.050Z,16.3
2018-07-13T03:38:17.047Z,16.3
2018-07-13T03:39:15.555Z,16.2
2018-07-13T03:40:15.371Z,16.3
2018-07-13T03:41:14.808Z,16.2
2018-07-13T03:42:14.253Z,16.3
2018-07-13T03:43:12.968Z,16.2
2018-07-13T03:44:12.702Z,16.2
2018-07-13T03:44:43.327Z,16.2
2018-07-13T03:45:13.856Z,16.2
2018-07-13T03:45:44.374Z,16.2
2018-07-13T03:47:10.381Z,16.2
2018-07-13T03:48:09.702Z,16.2
2018-07-13T03:49:08.927Z,16.2
2018-07-13T03:50:08.142Z,16.2
2018-07-13T03:51:07.966Z,16.2
2018-07-13T03:52:07.192Z,16.2
2018-07-13T03:53:06.402Z,16.2
2018-07-13T03:54:05.984Z,16.2
2018-07-13T03:55:04.706Z,16.2
2018-07-13T03:55:35.345Z,16.2
2018-07-13T03:56:06.122Z,16.2
2018-07-13T03:57:03.617Z,16.2
2018-07-13T03:58:02.725Z,16.2
2018-07-13T03:59:01.937Z,16.2
2018-07-13T04:00:01.660Z,16.2
2018-07-13T04:01:01.004Z,16.2
2018-07-13T04:02:00.223Z,16.2
2018-07-13T04:02:59.547Z,16.2
2018-07-13T04:03:58.859Z,16.2
2018-07-13T04:04:58.178Z,16.2
2018-07-13T04:05:57.496Z,16.2
2018-07-13T04:06:57.179Z,16.2
2018-07-13T04:07:56.106Z,16.2
2018-07-13T04:08:55.437Z,16.2
2018-07-13T04:09:54.542Z,16.2
2018-07-13T04:10:53.870Z,16.2
2018-07-13T04:11:53.308Z,16.2
2018-07-13T04:12:52.624Z,16.2
2018-07-13T04:13:51.943Z,16.2
2018-07-13T04:14:51.064Z,16.2
2018-07-13T04:15:50.272Z,16.2
2018-07-13T04:16:49.774Z,16.2
2018-07-13T04:17:48.990Z,16.2
2018-07-13T04:18:48.416Z,16.2
2018-07-13T04:19:47.834Z,16.2
2018-07-13T04:20:47.217Z,16.2
2018-07-13T04:21:46.532Z,16.2
2018-07-13T04:22:45.965Z,16.3
2018-07-13T04:23:44.785Z,16.3
2018-07-13T04:24:43.888Z,16.3
2018-07-13T04:25:43.503Z,16.3
2018-07-13T04:26:42.609Z,16.4
2018-07-13T04:27:41.716Z,16.4
2018-07-13T04:28:41.954Z,16.4
2018-07-13T04:29:40.804Z,16.4
2018-07-13T04:30:40.133Z,16.5
2018-07-13T04:31:39.556Z,16.5
2018-07-13T04:32:38.872Z,16.5
2018-07-13T04:33:38.092Z,16.5
2018-07-13T04:34:37.421Z,16.5
2018-07-13T04:36:36.244Z,16.5
2018-07-13T04:37:35.062Z,16.5
2018-07-13T04:38:34.785Z,16.5
2018-07-13T04:39:33.999Z,16.5
2018-07-13T04:40:33.217Z,16.5
2018-07-13T04:41:04.238Z,16.5
2018-07-13T04:41:34.382Z,16.5
2018-07-13T04:42:04.800Z,16.5
2018-07-13T04:43:31.407Z,16.5
2018-07-13T04:44:30.227Z,16.5
2018-07-13T04:45:29.331Z,16.6
2018-07-13T04:46:29.256Z,16.6
2018-07-13T04:47:28.082Z,16.6
2018-07-13T04:48:27.289Z,16.6
2018-07-13T04:49:27.114Z,16.6
2018-07-13T04:50:26.220Z,16.6
2018-07-13T04:50:56.746Z,16.6
2018-07-13T04:51:27.381Z,16.6
2018-07-13T04:51:58.017Z,16.6
2018-07-13T04:52:28.759Z,16.6
2018-07-13T04:52:58.989Z,16.6
2018-07-13T04:53:29.023Z,16.6
2018-07-13T04:53:59.551Z,16.6
2018-07-13T04:54:30.178Z,16.6
2018-07-13T04:55:00.811Z,16.6
2018-07-13T04:56:22.280Z,16.7
2018-07-13T04:57:21.705Z,16.7
2018-07-13T04:58:20.467Z,16.7
2018-07-13T04:59:19.796Z,16.7
2018-07-13T05:00:19.122Z,16.7
2018-07-13T05:01:18.548Z,16.7
2018-07-13T05:02:17.657Z,16.8
2018-07-13T05:03:17.480Z,16.8
2018-07-13T05:04:16.800Z,16.8
2018-07-13T05:05:16.128Z,16.8
2018-07-13T05:06:15.206Z,16.8
2018-07-13T05:07:14.456Z,16.8
2018-07-13T05:08:13.783Z,16.9
2018-07-13T05:09:13.003Z,16.9
2018-07-13T05:10:12.221Z,16.9
2018-07-13T05:11:11.544Z,17
2018-07-13T05:12:11.258Z,17
2018-07-13T05:13:10.685Z,17
2018-07-13T05:14:09.605Z,17
2018-07-13T05:15:08.611Z,17
2018-07-13T05:16:08.328Z,17
2018-07-13T05:18:06.933Z,17.1
2018-07-13T05:19:06.209Z,17.1
2018-07-13T05:20:05.107Z,17.1
2018-07-13T05:21:04.815Z,17.1
2018-07-13T05:22:04.038Z,17.1
2018-07-13T05:23:03.156Z,17.2
2018-07-13T05:23:33.462Z,17.2
2018-07-13T05:25:01.985Z,17.2
2018-07-13T05:26:01.092Z,17.2
2018-07-13T05:27:00.804Z,17.2
2018-07-13T05:28:00.123Z,17.2
2018-07-13T05:28:59.445Z,17.3
2018-07-13T05:29:58.759Z,17.3
2018-07-13T05:30:58.082Z,17.3
2018-07-13T05:31:57.410Z,17.3
2018-07-13T05:32:56.747Z,17.3
2018-07-13T05:33:55.962Z,17.4
2018-07-13T05:34:26.483Z,17.4
2018-07-13T05:34:57.117Z,17.4
2018-07-13T05:35:27.754Z,17.4
2018-07-13T05:36:53.756Z,17.5
2018-07-13T05:37:52.972Z,17.5
2018-07-13T05:38:52.695Z,17.5
2018-07-13T05:39:52.142Z,17.6
2018-07-13T05:40:51.063Z,17.6
2018-07-13T05:41:50.390Z,17.6
2018-07-13T05:42:49.706Z,17.6
2018-07-13T05:43:48.916Z,17.7
2018-07-13T05:44:48.133Z,17.7
2018-07-13T05:45:18.768Z,17.7
2018-07-13T05:47:46.450Z,17.7
2018-07-13T05:48:45.773Z,17.7
2018-07-13T05:49:45.571Z,17.7
2018-07-13T05:50:44.285Z,17.7
2018-07-13T05:51:43.707Z,17.7
2018-07-13T05:52:42.813Z,17.7
2018-07-13T05:53:42.074Z,17.7
2018-07-13T05:54:41.292Z,17.8
2018-07-13T05:55:41.018Z,17.8
2018-07-13T05:56:40.230Z,17.8
2018-07-13T05:57:39.705Z,17.8
2018-07-13T05:58:39.133Z,17.8
2018-07-13T05:59:37.851Z,17.9
2018-07-13T06:00:37.569Z,17.9
2018-07-13T06:01:36.667Z,17.9
2018-07-13T06:02:36.275Z,18
2018-07-13T06:03:35.595Z,18.1
2018-07-13T06:04:34.809Z,18.1
2018-07-13T06:05:33.914Z,18.1
2018-07-13T06:06:33.243Z,18.1
2018-07-13T06:07:32.965Z,18.1
2018-07-13T06:08:32.228Z,18.1
2018-07-13T06:09:31.452Z,18.2
2018-07-13T06:10:30.881Z,18.2
2018-07-13T06:11:30.202Z,18.2
2018-07-13T06:12:29.515Z,18.2
2018-07-13T06:13:28.834Z,18.3
2018-07-13T06:14:28.153Z,18.3
2018-07-13T06:15:27.375Z,18.3
2018-07-13T06:16:26.696Z,18.4
2018-07-13T06:17:26.129Z,18.4
2018-07-13T06:18:25.561Z,18.4
2018-07-13T06:19:24.788Z,18.5
2018-07-13T06:20:24.010Z,18.5
2018-07-13T06:21:23.400Z,18.5
2018-07-13T06:22:22.515Z,18.5
2018-07-13T06:23:22.229Z,18.5
2018-07-13T06:24:22.091Z,18.5
2018-07-13T06:25:20.716Z,18.6
2018-07-13T06:26:19.615Z,18.6
2018-07-13T06:27:19.456Z,18.7
2018-07-13T06:28:18.665Z,18.7
2018-07-13T06:29:17.879Z,18.7
2018-07-13T06:30:17.308Z,18.7
2018-07-13T06:31:16.719Z,18.7
2018-07-13T06:31:46.981Z,18.7
2018-07-13T06:32:17.114Z,18.8
2018-07-13T06:32:47.748Z,18.8
2018-07-13T06:33:18.495Z,18.8
2018-07-13T06:33:48.733Z,18.8
2018-07-13T06:35:14.227Z,18.8
2018-07-13T06:36:13.552Z,18.8
2018-07-13T06:37:12.776Z,18.9
2018-07-13T06:38:11.999Z,19
2018-07-13T06:39:11.325Z,19
2018-07-13T06:40:10.437Z,19
2018-07-13T06:41:10.372Z,19
2018-07-13T06:42:09.810Z,19
2018-07-13T06:43:08.631Z,19.1
2018-07-13T06:44:07.947Z,19.2
2018-07-13T06:45:07.268Z,19.2
2018-07-13T06:46:07.199Z,19.2
2018-07-13T06:47:06.129Z,19.3
2018-07-13T06:48:05.467Z,19.2
2018-07-13T06:49:04.675Z,19.3
2018-07-13T06:50:04.289Z,19.2
2018-07-13T06:51:03.401Z,19.3
2018-07-13T06:52:02.515Z,19.2
2018-07-13T06:53:02.130Z,19.2
2018-07-13T06:54:01.758Z,19.2
2018-07-13T06:55:00.999Z,19.3
2018-07-13T06:56:59.709Z,19.4
2018-07-13T06:57:59.030Z,19.4
2018-07-13T06:58:58.345Z,19.4
2018-07-13T06:59:57.680Z,19.4
2018-07-13T07:00:57.010Z,19.4
2018-07-13T07:01:56.443Z,19.5
2018-07-13T07:02:55.650Z,19.6
2018-07-13T07:03:55.367Z,19.6
2018-07-13T07:04:54.753Z,19.6
2018-07-13T07:05:54.002Z,19.6
2018-07-13T07:06:53.225Z,19.6
2018-07-13T07:07:52.645Z,19.6
2018-07-13T07:08:51.982Z,19.7
2018-07-13T07:09:51.197Z,19.8
2018-07-13T07:10:50.621Z,19.8
2018-07-13T07:11:49.831Z,19.8
2018-07-13T07:12:49.659Z,19.8
2018-07-13T07:13:19.897Z,19.8
2018-07-13T07:13:49.923Z,19.9
2018-07-13T07:14:20.551Z,19.9
2018-07-13T07:14:51.196Z,19.9
2018-07-13T07:15:21.928Z,19.9
2018-07-13T07:15:52.172Z,19.9
2018-07-13T07:16:22.801Z,19.9
2018-07-13T07:17:46.517Z,19.8
2018-07-13T07:18:45.361Z,19.9
2018-07-13T07:19:45.186Z,19.9
2018-07-13T07:20:44.390Z,19.9
2018-07-13T07:21:43.609Z,19.9
2018-07-13T07:23:42.222Z,20
2018-07-13T07:24:12.853Z,20
2018-07-13T07:24:43.377Z,20
2018-07-13T07:25:14.006Z,20
2018-07-13T07:25:44.648Z,20
2018-07-13T07:26:15.276Z,20
2018-07-13T07:27:39.644Z,20
2018-07-13T07:28:39.078Z,20.1
2018-07-13T07:29:38.502Z,20.1
2018-07-13T07:31:37.255Z,20.2
2018-07-13T07:32:36.458Z,20.2
2018-07-13T07:33:36.099Z,20.1
2018-07-13T07:34:35.223Z,20.2
2018-07-13T07:35:34.673Z,20.2
2018-07-13T07:36:33.994Z,20.3
2018-07-13T07:37:33.476Z,20.4
2018-07-13T07:38:33.465Z,20.5
2018-07-13T07:39:32.276Z,20.5
2018-07-13T07:40:31.498Z,20.5
2018-07-13T07:41:30.820Z,20.5
2018-07-13T07:42:30.145Z,20.5
2018-07-13T07:43:30.076Z,20.5
2018-07-13T07:44:29.008Z,20.5
2018-07-13T07:45:28.442Z,20.6
2018-07-13T07:47:27.157Z,20.6
2018-07-13T07:48:26.476Z,20.6
2018-07-13T07:49:25.699Z,20.6
2018-07-13T07:50:25.426Z,20.7
2018-07-13T07:51:24.751Z,20.7
2018-07-13T07:52:24.067Z,20.8
2018-07-13T07:53:23.552Z,20.8
2018-07-13T07:54:22.972Z,20.9
2018-07-13T07:55:22.083Z,20.9
2018-07-13T07:56:21.914Z,20.9
2018-07-13T07:56:52.332Z,20.9
2018-07-13T07:57:22.975Z,20.8
2018-07-13T07:58:20.282Z,20.9
2018-07-13T07:59:20.057Z,20.9
2018-07-13T08:00:19.275Z,20.9
2018-07-13T08:02:18.089Z,20.8
2018-07-13T08:03:17.368Z,20.9
2018-07-13T08:04:16.808Z,20.9
2018-07-13T08:05:16.242Z,20.8
2018-07-13T08:06:16.850Z,20.8
2018-07-13T08:07:18.038Z,20.9
2018-07-13T08:07:45.589Z,20.9
2018-07-13T08:08:15.618Z,20.8
2018-07-13T08:09:13.825Z,20.8
2018-07-13T08:10:12.951Z,20.8
2018-07-13T08:11:12.892Z,20.8
2018-07-13T08:12:11.606Z,20.8
2018-07-13T08:12:42.144Z,20.8
2018-07-13T08:13:12.775Z,20.9
2018-07-13T08:13:43.907Z,20.9
2018-07-13T08:14:16.903Z,20.9
2018-07-13T08:14:44.380Z,20.9
2018-07-13T08:15:14.496Z,20.9
2018-07-13T08:16:09.435Z,20.8
2018-07-13T08:17:08.783Z,20.9
2018-07-13T08:18:08.133Z,21
2018-07-13T08:19:07.499Z,21
2018-07-13T08:20:06.514Z,21
2018-07-13T08:21:06.241Z,21
2018-07-13T08:22:05.853Z,21
2018-07-13T08:22:36.393Z,21
2018-07-13T08:24:04.512Z,21.1
2018-07-13T08:25:03.505Z,21.1
2018-07-13T08:26:03.009Z,21
2018-07-13T08:27:02.735Z,21
2018-07-13T08:28:01.961Z,21
2018-07-13T08:29:01.797Z,21.2
2018-07-13T08:30:01.029Z,21.2
2018-07-13T08:31:00.141Z,21.3
2018-07-13T08:31:59.959Z,21.3
2018-07-13T08:32:59.173Z,21.3
2018-07-13T08:33:58.385Z,21.3
2018-07-13T08:34:58.214Z,21.3
2018-07-13T08:35:57.426Z,21.3
2018-07-13T08:36:56.646Z,21.4
2018-07-13T08:37:56.368Z,21.4
2018-07-13T08:38:55.692Z,21.4
2018-07-13T08:39:55.027Z,21.4
2018-07-13T08:40:54.359Z,21.5
2018-07-13T08:42:53.065Z,21.6
2018-07-13T08:43:52.681Z,21.6
2018-07-13T08:44:51.913Z,21.6
2018-07-13T08:45:51.149Z,21.6
2018-07-13T08:46:51.086Z,21.6
2018-07-13T08:47:50.297Z,21.7
2018-07-13T08:48:49.726Z,21.9
2018-07-13T08:49:48.927Z,21.8
2018-07-13T08:50:48.543Z,21.8
2018-07-13T08:51:48.449Z,21.8
2018-07-13T08:52:47.166Z,21.9
2018-07-13T08:53:17.913Z,21.9
2018-07-13T08:53:48.349Z,22
2018-07-13T08:54:18.983Z,22
2018-07-13T08:54:49.000Z,22
2018-07-13T08:55:19.732Z,22
2018-07-13T08:55:49.962Z,22
2018-07-13T08:56:20.325Z,22
2018-07-13T08:57:44.496Z,22.1
2018-07-13T08:58:43.722Z,22.2
2018-07-13T08:59:43.432Z,22.2
2018-07-13T09:00:42.765Z,22.2
2018-07-13T09:01:42.742Z,22.3
2018-07-13T09:02:41.203Z,22.3
2018-07-13T09:03:40.914Z,22.4
2018-07-13T09:04:11.886Z,22.4
2018-07-13T09:04:42.121Z,22.4
2018-07-13T09:05:12.274Z,22.4
2018-07-13T09:05:43.113Z,22.4
2018-07-13T09:06:13.611Z,22.4
2018-07-13T09:06:44.029Z,22.3
2018-07-13T09:07:14.552Z,22.3
2018-07-13T09:08:37.926Z,22.4
2018-07-13T09:09:37.237Z,22.3
2018-07-13T09:10:36.546Z,22.4
2018-07-13T09:11:36.264Z,22.5
2018-07-13T09:12:35.687Z,22.5
2018-07-13T09:13:35.016Z,22.6
2018-07-13T09:14:34.347Z,22.7
2018-07-13T09:15:33.768Z,22.7
2018-07-13T09:16:33.086Z,22.7
2018-07-13T09:17:32.912Z,22.7
2018-07-13T09:18:03.444Z,22.7
2018-07-13T09:18:34.085Z,22.7
2018-07-13T09:20:31.071Z,22.8
2018-07-13T09:21:30.503Z,22.8
2018-07-13T09:22:29.942Z,22.9
2018-07-13T09:23:29.300Z,23
2018-07-13T09:24:28.619Z,23.1
2018-07-13T09:25:27.838Z,23.1
2018-07-13T09:26:27.558Z,23.2
2018-07-13T09:27:26.776Z,23.2
2018-07-13T09:28:26.498Z,23.1
2018-07-13T09:29:25.607Z,23.1
2018-07-13T09:30:25.427Z,23.1
2018-07-13T09:31:24.859Z,23.1
2018-07-13T09:32:24.290Z,23.1
2018-07-13T09:33:23.507Z,23.1
2018-07-13T09:34:23.228Z,23.1
2018-07-13T09:35:22.637Z,23.3
2018-07-13T09:36:21.770Z,23.2
2018-07-13T09:37:21.093Z,23.2
2018-07-13T09:38:21.221Z,23.3
2018-07-13T09:40:19.494Z,23.3
2018-07-13T09:41:19.315Z,23.4
2018-07-13T09:42:18.752Z,23.4
2018-07-13T09:43:17.991Z,23.4
2018-07-13T09:44:17.304Z,23.4
2018-07-13T09:45:17.021Z,23.4
2018-07-13T09:46:16.454Z,23.4
2018-07-13T09:47:15.556Z,23.4
2018-07-13T09:47:46.085Z,23.4
2018-07-13T09:48:16.719Z,23.5
2018-07-13T09:48:47.363Z,23.5
2018-07-13T09:49:17.518Z,23.5
2018-07-13T09:50:14.358Z,23.5
2018-07-13T09:51:13.550Z,23.6
2018-07-13T09:52:12.772Z,23.8
2018-07-13T09:53:12.596Z,23.7
2018-07-13T09:53:44.210Z,23.7
2018-07-13T09:55:11.345Z,23.6
2018-07-13T09:56:10.580Z,23.7
2018-07-13T09:57:10.313Z,23.7
2018-07-13T09:58:09.663Z,23.7
2018-07-13T09:59:08.984Z,23.8
2018-07-13T10:00:08.489Z,23.8
2018-07-13T10:01:07.709Z,23.8
2018-07-13T10:02:07.331Z,23.8
2018-07-13T10:04:06.546Z,23.7
2018-07-13T10:04:37.223Z,23.7
2018-07-13T10:05:07.748Z,23.7
2018-07-13T10:06:05.745Z,23.9
2018-07-13T10:07:04.959Z,24
2018-07-13T10:08:04.073Z,24.2
2018-07-13T10:09:03.688Z,24.3
2018-07-13T10:10:03.016Z,24.2
2018-07-13T10:11:02.953Z,24.1
2018-07-13T10:12:02.178Z,24.2
2018-07-13T10:13:01.401Z,24.1
2018-07-13T10:14:01.232Z,24.1
2018-07-13T10:15:00.596Z,24.1
2018-07-13T10:15:59.813Z,24.1
2018-07-13T10:16:59.418Z,24.1
2018-07-13T10:17:58.527Z,24.1
2018-07-13T10:18:58.399Z,24.2
2018-07-13T10:19:57.626Z,24.3
2018-07-13T10:20:57.341Z,24.4
2018-07-13T10:21:56.665Z,24.3
2018-07-13T10:22:56.098Z,24.3
2018-07-13T10:23:55.868Z,24.3
2018-07-13T10:24:55.194Z,24.3
2018-07-13T10:25:54.512Z,24.3
2018-07-13T10:26:54.334Z,24.4
2018-07-13T10:27:53.759Z,24.4
2018-07-13T10:28:52.993Z,24.4
2018-07-13T10:29:52.419Z,24.4
2018-07-13T10:30:52.136Z,24.5
2018-07-13T10:31:51.450Z,24.5
2018-07-13T10:32:50.764Z,24.5
2018-07-13T10:33:50.703Z,24.5
2018-07-13T10:34:49.910Z,24.6
2018-07-13T10:35:49.232Z,24.6
2018-07-13T10:36:49.066Z,24.9
2018-07-13T10:37:48.178Z,25
2018-07-13T10:38:48.115Z,25
2018-07-13T10:39:47.226Z,25.1
2018-07-13T10:40:47.165Z,25.1
2018-07-13T10:41:46.381Z,25.2
2018-07-13T10:42:45.721Z,25.1
2018-07-13T10:43:45.330Z,25
2018-07-13T10:44:44.544Z,25.1
2018-07-13T10:45:15.178Z,25.1
2018-07-13T10:45:46.166Z,25.1
2018-07-13T10:46:16.358Z,25.1
2018-07-13T10:46:46.886Z,25.2
2018-07-13T10:47:17.625Z,25.2
2018-07-13T10:47:48.204Z,25.3
2018-07-13T10:48:18.523Z,25.3
2018-07-13T10:48:49.048Z,25.4
2018-07-13T10:49:19.370Z,25.4
2018-07-13T10:50:41.952Z,25.4
2018-07-13T10:51:41.389Z,25.5
2018-07-13T10:52:40.602Z,25.6
2018-07-13T10:53:40.422Z,25.5
2018-07-13T10:54:39.846Z,25.5
2018-07-13T10:55:39.171Z,25.5
2018-07-13T10:56:38.501Z,25.4
2018-07-13T10:57:38.322Z,25.4
2018-07-13T10:58:38.121Z,25.4
2018-07-13T10:59:37.255Z,25.3
2018-07-13T11:00:07.787Z,25.3
2018-07-13T11:01:36.403Z,25.3
2018-07-13T11:02:35.845Z,25.3
2018-07-13T11:03:35.165Z,25.3
2018-07-13T11:04:34.882Z,25.3
2018-07-13T11:05:34.314Z,25.3
2018-07-13T11:07:33.309Z,25.5
2018-07-13T11:08:32.628Z,25.6
2018-07-13T11:09:32.340Z,25.6
2018-07-13T11:10:31.658Z,25.7
2018-07-13T11:11:31.377Z,25.8
2018-07-13T11:12:30.384Z,25.8
2018-07-13T11:13:30.207Z,25.8
2018-07-13T11:14:29.925Z,25.8
2018-07-13T11:15:29.249Z,25.9
2018-07-13T11:16:29.175Z,25.9
2018-07-13T11:17:28.386Z,25.7
2018-07-13T11:18:28.107Z,25.7
2018-07-13T11:19:27.333Z,25.7
2018-07-13T11:20:27.040Z,25.7
2018-07-13T11:21:26.356Z,25.8
2018-07-13T11:22:26.286Z,25.8
2018-07-13T11:23:25.492Z,25.9
2018-07-13T11:24:25.750Z,26.1
2018-07-13T11:25:24.368Z,26.1
2018-07-13T11:26:24.304Z,26.1
2018-07-13T11:27:23.517Z,26.2
2018-07-13T11:28:23.447Z,26.3
2018-07-13T11:29:22.876Z,26.3
2018-07-13T11:30:21.876Z,26.4
2018-07-13T11:31:21.819Z,26.4
2018-07-13T11:32:21.030Z,26.3
2018-07-13T11:33:20.764Z,26.1
2018-07-13T11:34:20.473Z,26.1
2018-07-13T11:35:19.900Z,26.1
2018-07-13T11:36:19.612Z,26.4
2018-07-13T11:37:19.546Z,26.6
2018-07-13T11:38:18.332Z,26.5
2018-07-13T11:39:18.221Z,26.4
2018-07-13T11:40:17.554Z,26.5
2018-07-13T11:41:17.468Z,26.6
2018-07-13T11:42:16.792Z,26.7
2018-07-13T11:43:16.111Z,26.5
2018-07-13T11:44:16.861Z,26.5
2018-07-13T11:45:15.401Z,26.7
2018-07-13T11:46:15.128Z,26.6
2018-07-13T11:47:14.356Z,26.5
2018-07-13T11:48:14.076Z,26.6
2018-07-13T11:49:13.408Z,26.7
2018-07-13T11:50:13.236Z,26.5
2018-07-13T11:51:12.689Z,26.7
2018-07-13T11:52:12.458Z,26.7
2018-07-13T11:53:11.796Z,26.8
2018-07-13T11:54:11.626Z,27
2018-07-13T11:55:10.951Z,27
2018-07-13T11:56:10.811Z,27.2
2018-07-13T11:57:10.252Z,27.4
2018-07-13T11:58:09.589Z,27.4
2018-07-13T11:59:09.517Z,27.2
2018-07-13T12:00:08.776Z,27.3
2018-07-13T12:01:08.624Z,27
2018-07-13T12:02:07.844Z,26.8
2018-07-13T12:03:07.777Z,26.8
2018-07-13T12:04:06.775Z,26.9
2018-07-13T12:05:06.493Z,27.1
2018-07-13T12:06:06.022Z,27.1
2018-07-13T12:07:05.542Z,27
2018-07-13T12:08:05.369Z,26.9
2018-07-13T12:09:05.199Z,27.1
2018-07-13T12:10:04.525Z,27.3
2018-07-13T12:11:04.132Z,27.5
2018-07-13T12:12:03.131Z,27.5
2018-07-13T12:14:02.739Z,27.3
2018-07-13T12:15:02.480Z,27.5
2018-07-13T12:16:02.200Z,27.6
2018-07-13T12:17:01.300Z,27.6
2018-07-13T12:18:01.126Z,27.5
2018-07-13T12:19:00.963Z,27.4
2018-07-13T12:20:00.820Z,27.2
2018-07-13T12:20:59.833Z,27
2018-07-13T12:21:59.775Z,27.2
2018-07-13T12:22:58.773Z,27
2018-07-13T12:23:58.648Z,27
2018-07-13T12:24:58.457Z,27
2018-07-13T12:25:57.882Z,27.1
2018-07-13T12:26:57.931Z,27.2
2018-07-13T12:27:57.259Z,27.4
2018-07-13T12:28:56.470Z,27.7
2018-07-13T12:29:56.287Z,27.7
2018-07-13T12:30:56.216Z,27.8
2018-07-13T12:31:55.328Z,27.8
2018-07-13T12:32:54.940Z,27.5
2018-07-13T12:33:54.758Z,27.3
2018-07-13T12:34:53.970Z,27.4
2018-07-13T12:35:53.690Z,27.6
2018-07-13T12:36:53.411Z,27.7
2018-07-13T12:37:53.484Z,27.7
2018-07-13T12:38:52.502Z,27.8
2018-07-13T12:39:52.974Z,27.9
2018-07-13T12:40:51.546Z,27.7
2018-07-13T12:41:51.477Z,27.5
2018-07-13T12:42:50.794Z,27.4